createdAt,value
2023-05-20T00:02:06.928Z,95394.78
2023-05-20T00:04:33.588Z,95398.78
2023-05-20T00:07:00.332Z,95390.66
2023-05-20T00:09:26.969Z,95388.41
2023-05-20T00:11:53.549Z,95392.41
2023-05-20T00:14:20.187Z,95381.91
2023-05-20T00:16:47.040Z,95385.91
2023-05-20T00:19:13.814Z,95383.59
2023-05-20T00:21:40.540Z,95381.31
2023-05-20T00:24:07.311Z,95381.78
2023-05-20T00:26:33.955Z,95382.22
2023-05-20T00:29:00.546Z,95378.72
2023-05-20T00:31:27.261Z,95390.78
2023-05-20T00:33:53.928Z,95383.69
2023-05-20T00:36:20.595Z,95380.97
2023-05-20T00:38:47.414Z,95373.94
2023-05-20T00:41:14.037Z,95379.41
2023-05-20T00:43:40.671Z,95378.59
2023-05-20T00:46:07.652Z,95375.06
2023-05-20T00:48:44.660Z,95385.66
2023-05-20T00:51:13.227Z,95384.06
2023-05-20T00:53:40.466Z,95381.78
2023-05-20T00:56:08.941Z,95388.38
2023-05-20T00:58:37.239Z,95386.09
2023-05-20T01:01:05.664Z,95383.00
2023-05-20T01:03:33.224Z,95381.44
2023-05-20T01:06:00.414Z,95381.22
2023-05-20T01:08:27.549Z,95378.72
2023-05-20T01:11:08.161Z,95377.09
2023-05-20T01:13:46.979Z,95379.06
2023-05-20T01:16:17.934Z,95374.38
2023-05-20T01:18:47.258Z,95364.56
2023-05-20T01:21:15.500Z,95361.41
2023-05-20T01:23:42.276Z,95367.91
2023-05-20T01:26:09.803Z,95360.84
2023-05-20T01:28:37.438Z,95361.91
2023-05-20T01:31:07.667Z,95361.09
2023-05-20T01:33:36.547Z,95360.28
2023-05-20T01:36:03.791Z,95357.88
2023-05-20T01:38:31.670Z,95354.69
2023-05-20T01:40:59.582Z,95354.22
2023-05-20T01:43:27.380Z,95367.09
2023-05-20T01:45:54.175Z,95358.91
2023-05-20T01:48:21.429Z,95357.31
2023-05-20T01:50:48.227Z,95353.44
2023-05-20T01:53:16.666Z,95353.44
2023-05-20T01:55:43.455Z,95346.38
2023-05-20T01:58:10.139Z,95361.19
2023-05-20T02:00:36.835Z,95348.66
2023-05-20T02:03:04.187Z,95353.00
2023-05-20T02:05:30.925Z,95345.94
2023-05-20T02:07:58.193Z,95353.22
2023-05-20T02:10:25.164Z,95349.59
2023-05-20T02:12:51.856Z,95350.63
2023-05-20T02:15:18.613Z,95353.72
2023-05-20T02:17:46.587Z,95352.13
2023-05-20T02:20:14.304Z,95350.53
2023-05-20T02:22:41.038Z,95348.94
2023-05-20T02:25:08.286Z,95357.56
2023-05-20T02:27:34.901Z,95350.06
2023-05-20T02:30:01.784Z,95357.03
2023-05-20T02:32:28.506Z,95365.56
2023-05-20T02:34:55.856Z,95359.66
2023-05-20T02:37:22.723Z,95353.38
2023-05-20T02:39:49.394Z,95347.13
2023-05-20T02:42:16.156Z,95348.75
2023-05-20T02:44:43.504Z,95341.34
2023-05-20T02:47:10.594Z,95337.47
2023-05-20T02:49:37.284Z,95334.38
2023-05-20T02:52:04.124Z,95337.09
2023-05-20T02:54:30.759Z,95335.19
2023-05-20T02:56:57.907Z,95332.00
2023-05-20T02:59:24.552Z,95335.97
2023-05-20T03:01:51.253Z,95341.44
2023-05-20T03:04:18.383Z,95349.28
2023-05-20T03:06:45.915Z,95343.47
2023-05-20T03:09:12.586Z,95349.28
2023-05-20T03:11:39.824Z,95347.34
2023-05-20T03:14:06.512Z,95348.16
2023-05-20T03:16:33.610Z,95352.00
2023-05-20T03:19:00.346Z,95348.50
2023-05-20T03:21:27.081Z,95344.94
2023-05-20T03:23:53.999Z,95343.81
2023-05-20T03:26:20.705Z,95348.16
2023-05-20T03:28:47.344Z,95350.06
2023-05-20T03:31:14.337Z,95345.06
2023-05-20T03:33:41.142Z,95351.66
2023-05-20T03:36:08.404Z,95343.13
2023-05-20T03:38:35.241Z,95341.19
2023-05-20T03:41:02.057Z,95341.19
2023-05-20T03:43:28.748Z,95342.78
2023-05-20T03:45:55.371Z,95337.31
2023-05-20T03:48:22.686Z,95343.56
2023-05-20T03:50:49.779Z,95351.44
2023-05-20T03:53:16.699Z,95355.41
2023-05-20T03:55:43.377Z,95348.47
2023-05-20T03:58:13.766Z,95351.66
2023-05-20T04:00:40.872Z,95353.22
2023-05-20T04:03:07.598Z,95349.81
2023-05-20T04:05:36.298Z,95354.81
2023-05-20T04:08:05.983Z,95355.16
2023-05-20T04:10:33.038Z,95352.34
2023-05-20T04:12:59.909Z,95350.75
2023-05-20T04:15:26.616Z,95349.16
2023-05-20T04:17:55.932Z,95339.38
2023-05-20T04:20:22.806Z,95349.50
2023-05-20T04:22:50.777Z,95358.94
2023-05-20T04:25:17.653Z,95351.91
2023-05-20T04:27:44.398Z,95346.88
2023-05-20T04:30:11.892Z,95348.47
2023-05-20T04:32:41.235Z,95353.94
2023-05-20T04:35:08.250Z,95340.72
2023-05-20T04:37:35.349Z,95339.56
2023-05-20T04:40:01.988Z,95341.16
2023-05-20T04:42:29.080Z,95336.13
2023-05-20T04:44:55.950Z,95345.50
2023-05-20T04:47:23.793Z,95343.19
2023-05-20T04:49:52.038Z,95354.13
2023-05-20T04:52:18.731Z,95352.53
2023-05-20T04:54:45.445Z,95352.53
2023-05-20T04:57:14.612Z,95346.72
2023-05-20T04:59:41.303Z,95357.66
2023-05-20T05:02:07.989Z,95350.28
2023-05-20T05:04:34.636Z,95348.41
2023-05-20T05:07:01.365Z,95334.75
2023-05-20T05:09:28.092Z,95336.34
2023-05-20T05:11:54.929Z,95337.97
2023-05-20T05:14:21.543Z,95334.56
2023-05-20T05:16:48.233Z,95343.66
2023-05-20T05:19:15.681Z,95342.03
2023-05-20T05:21:42.931Z,95339.78
2023-05-20T05:24:09.612Z,95334.75
2023-05-20T05:26:36.417Z,95334.84
2023-05-20T05:29:03.548Z,95333.72
2023-05-20T05:31:30.200Z,95334.50
2023-05-20T05:33:56.935Z,95332.22
2023-05-20T05:36:24.401Z,95344.75
2023-05-20T05:38:51.061Z,95329.94
2023-05-20T05:41:17.925Z,95336.28
2023-05-20T05:43:44.650Z,95333.09
2023-05-20T05:46:11.960Z,95337.88
2023-05-20T05:48:38.664Z,95330.25
2023-05-20T05:51:05.550Z,95335.09
2023-05-20T05:53:33.503Z,95330.75
2023-05-20T05:56:00.183Z,95328.88
2023-05-20T05:58:26.916Z,95330.19
2023-05-20T06:00:54.296Z,95334.59
2023-05-20T06:03:21.030Z,95326.50
2023-05-20T06:05:47.833Z,95338.75
2023-05-20T06:08:14.660Z,95333.28
2023-05-20T06:10:41.551Z,95334.91
2023-05-20T06:13:08.206Z,95339.66
2023-05-20T06:15:35.037Z,95339.31
2023-05-20T06:18:02.925Z,95337.19
2023-05-20T06:20:30.593Z,95338.97
2023-05-20T06:22:57.246Z,95337.47
2023-05-20T06:25:29.677Z,95336.22
2023-05-20T06:27:56.366Z,95330.31
2023-05-20T06:30:24.200Z,95328.72
2023-05-20T06:32:50.903Z,95329.63
2023-05-20T06:35:17.820Z,95324.16
2023-05-20T06:37:44.594Z,95313.72
2023-05-20T06:40:12.598Z,95323.59
2023-05-20T06:42:39.271Z,95314.41
2023-05-20T06:45:06.598Z,95318.06
2023-05-20T06:47:56.117Z,95324.38
2023-05-20T06:50:22.814Z,95322.66
2023-05-20T06:52:49.513Z,95320.88
2023-05-20T06:55:16.196Z,95328.47
2023-05-20T06:57:43.196Z,95320.06
2023-05-20T07:00:10.519Z,95305.38
2023-05-20T07:02:41.694Z,95309.16
2023-05-20T07:05:08.986Z,95307.00
2023-05-20T07:07:35.982Z,95305.22
2023-05-20T07:10:02.866Z,95305.81
2023-05-20T07:12:29.519Z,95307.97
2023-05-20T07:14:56.157Z,95310.94
2023-05-20T07:17:22.903Z,95302.25
2023-05-20T07:19:50.822Z,95312.41
2023-05-20T07:22:18.657Z,95298.09
2023-05-20T07:24:56.054Z,95297.88
2023-05-20T07:27:22.832Z,95301.09
2023-05-20T07:29:49.562Z,95298.97
2023-05-20T07:32:16.991Z,95301.47
2023-05-20T07:34:44.762Z,95298.53
2023-05-20T07:37:11.639Z,95292.78
2023-05-20T07:39:39.019Z,95290.25
2023-05-20T07:42:06.848Z,95277.06
2023-05-20T07:44:33.742Z,95286.53
2023-05-20T07:47:00.909Z,95283.50
2023-05-20T07:49:27.642Z,95278.84
2023-05-20T07:51:54.657Z,95274.19
2023-05-20T07:54:21.279Z,95275.34
2023-05-20T07:56:50.338Z,95279.28
2023-05-20T07:59:18.267Z,95267.47
2023-05-20T08:01:47.981Z,95276.53
2023-05-20T08:04:17.306Z,95282.47
2023-05-20T08:06:45.207Z,95279.31
2023-05-20T08:09:17.520Z,95276.00
2023-05-20T08:11:48.769Z,95278.75
2023-05-20T08:14:16.032Z,95268.13
2023-05-20T08:16:45.012Z,95268.16
2023-05-20T08:19:11.859Z,95269.34
2023-05-20T08:21:38.687Z,95266.22
2023-05-20T08:24:06.487Z,95258.84
2023-05-20T08:26:33.212Z,95260.81
2023-05-20T08:28:59.851Z,95260.06
2023-05-20T08:31:26.638Z,95263.66
2023-05-20T08:33:53.300Z,95264.91
2023-05-20T08:36:19.941Z,95256.31
2023-05-20T08:38:46.742Z,95262.31
2023-05-20T08:41:13.482Z,95259.31
2023-05-20T08:43:43.804Z,95265.72
2023-05-20T08:46:10.875Z,95261.13
2023-05-20T08:48:39.011Z,95266.25
2023-05-20T08:51:09.762Z,95258.97
2023-05-20T08:53:36.432Z,95252.47
2023-05-20T08:56:03.730Z,95248.28
2023-05-20T08:58:31.069Z,95257.41
2023-05-20T09:00:57.668Z,95259.84
2023-05-20T09:03:24.718Z,95253.97
2023-05-20T09:05:52.713Z,95250.91
2023-05-20T09:08:20.201Z,95252.50
2023-05-20T09:10:46.829Z,95247.50
2023-05-20T09:13:13.429Z,95251.53
2023-05-20T09:15:40.074Z,95251.22
2023-05-20T09:18:08.145Z,95256.84
2023-05-20T09:20:36.846Z,95256.91
2023-05-20T09:23:05.873Z,95250.66
2023-05-20T09:25:33.356Z,95257.84
2023-05-20T09:28:00.216Z,95252.72
2023-05-20T09:30:26.950Z,95255.50
2023-05-20T09:32:59.060Z,95243.72
2023-05-20T09:35:27.724Z,95239.41
2023-05-20T09:37:58.568Z,95248.88
2023-05-20T09:40:27.247Z,95250.84
2023-05-20T09:42:57.548Z,95250.47
2023-05-20T09:45:24.207Z,95246.09
2023-05-20T09:47:52.051Z,95244.53
2023-05-20T09:50:20.315Z,95248.50
2023-05-20T09:52:47.808Z,95238.22
2023-05-20T09:55:15.347Z,95237.44
2023-05-20T09:57:42.285Z,95237.41
2023-05-20T10:00:09.472Z,95230.31
2023-05-20T10:02:51.983Z,95229.53
2023-05-20T10:05:32.343Z,95225.56
2023-05-20T10:08:16.875Z,95223.22
2023-05-20T10:11:12.327Z,95216.50
2023-05-20T10:13:53.651Z,95208.63
2023-05-20T10:16:38.976Z,95214.53
2023-05-20T10:19:27.524Z,95212.16
2023-05-20T10:22:08.671Z,95218.88
2023-05-20T10:24:37.583Z,95214.09
2023-05-20T10:27:08.360Z,95206.97
2023-05-20T10:29:43.800Z,95206.56
2023-05-20T10:32:10.650Z,95206.16
2023-05-20T10:34:48.894Z,95193.91
2023-05-20T10:37:24.636Z,95188.31
2023-05-20T10:39:51.529Z,95184.69
2023-05-20T10:42:28.500Z,95191.00
2023-05-20T10:44:55.136Z,95182.28
2023-05-20T10:47:26.067Z,95192.13
2023-05-20T10:49:53.186Z,95186.56
2023-05-20T10:52:20.569Z,95180.19
2023-05-20T10:54:54.647Z,95184.09
2023-05-20T10:57:22.172Z,95175.72
2023-05-20T10:59:49.779Z,95179.63
2023-05-20T11:02:18.613Z,95164.13
2023-05-20T11:04:46.294Z,95164.09
2023-05-20T11:07:13.439Z,95155.34
2023-05-20T11:09:40.142Z,95168.22
2023-05-20T11:12:07.061Z,95156.38
2023-05-20T11:14:35.617Z,95161.53
2023-05-20T11:17:02.352Z,95158.75
2023-05-20T11:19:29.162Z,95153.22
2023-05-20T11:21:55.991Z,95154.34
2023-05-20T11:24:25.629Z,95153.94
2023-05-20T11:26:52.585Z,95146.34
2023-05-20T11:29:19.827Z,95146.34
2023-05-20T11:31:50.614Z,95144.75
2023-05-20T11:34:21.787Z,95142.72
2023-05-20T11:36:56.884Z,95138.34
2023-05-20T11:39:23.603Z,95128.69
2023-05-20T11:41:50.597Z,95133.06
2023-05-20T11:44:20.194Z,95132.28
2023-05-20T11:46:48.283Z,95129.88
2023-05-20T11:49:15.784Z,95126.28
2023-05-20T11:51:43.959Z,95131.31
2023-05-20T11:54:10.594Z,95124.91
2023-05-20T11:56:38.544Z,95117.28
2023-05-20T11:59:05.964Z,95125.66
2023-05-20T12:01:35.397Z,95122.34
2023-05-20T12:04:02.283Z,95116.75
2023-05-20T12:06:29.114Z,95123.00
2023-05-20T12:08:55.803Z,95115.50
2023-05-20T12:11:22.440Z,95122.34
2023-05-20T12:13:49.355Z,95122.81
2023-05-20T12:16:16.101Z,95124.38
2023-05-20T12:18:42.830Z,95121.72
2023-05-20T12:21:09.593Z,95116.59
2023-05-20T12:23:36.228Z,95114.59
2023-05-20T12:26:03.151Z,95109.47
2023-05-20T12:28:29.764Z,95117.00
2023-05-20T12:30:56.348Z,95116.19
2023-05-20T12:33:22.926Z,95126.47
2023-05-20T12:35:49.596Z,95124.53
2023-05-20T12:38:16.183Z,95108.66
2023-05-20T12:40:43.005Z,95111.81
2023-05-20T12:43:09.852Z,95121.28
2023-05-20T12:45:36.489Z,95122.44
2023-05-20T12:48:04.950Z,95115.97
2023-05-20T12:50:31.582Z,95119.06
2023-05-20T12:52:58.213Z,95113.38
2023-05-20T12:55:24.976Z,95110.88
2023-05-20T12:57:51.591Z,95108.00
2023-05-20T13:00:18.313Z,95114.34
2023-05-20T13:02:45.215Z,95109.47
2023-05-20T13:05:12.272Z,95108.13
2023-05-20T13:07:39.153Z,95106.16
2023-05-20T13:10:07.222Z,95103.00
2023-05-20T13:12:35.513Z,95098.03
2023-05-20T13:15:02.980Z,95094.09
2023-05-20T13:17:30.056Z,95094.56
2023-05-20T13:19:56.778Z,95088.88
2023-05-20T13:22:23.485Z,95090.41
2023-05-20T13:24:50.288Z,95090.00
2023-05-20T13:27:17.031Z,95080.81
2023-05-20T13:29:43.760Z,95074.34
2023-05-20T13:32:10.633Z,95069.09
2023-05-20T13:34:37.489Z,95078.81
2023-05-20T13:37:04.778Z,95077.78
2023-05-20T13:39:31.795Z,95067.84
2023-05-20T13:41:58.961Z,95070.84
2023-05-20T13:44:25.592Z,95061.72
2023-05-20T13:46:52.344Z,95064.50
2023-05-20T13:49:19.162Z,95062.47
2023-05-20T13:51:45.864Z,95062.22
2023-05-20T13:54:12.503Z,95049.16
2023-05-20T13:56:39.337Z,95065.50
2023-05-20T13:59:06.108Z,95061.38
2023-05-20T14:01:33.053Z,95046.03
2023-05-20T14:03:59.914Z,95050.19
2023-05-20T14:06:27.200Z,95043.97
2023-05-20T14:08:55.041Z,95047.22
2023-05-20T14:11:21.798Z,95034.56
2023-05-20T14:13:48.529Z,95043.38
2023-05-20T14:16:15.451Z,95037.03
2023-05-20T14:18:42.194Z,95036.38
2023-05-20T14:21:08.853Z,95027.97
2023-05-20T14:23:35.602Z,95036.25
2023-05-20T14:26:02.197Z,95025.75
2023-05-20T14:28:28.843Z,95027.53
2023-05-20T14:30:55.518Z,95023.06
2023-05-20T14:33:22.185Z,95019.19
2023-05-20T14:35:48.833Z,95017.19
2023-05-20T14:38:16.190Z,94993.59
2023-05-20T14:40:42.826Z,95012.41
2023-05-20T14:43:09.480Z,94999.25
2023-05-20T14:45:36.111Z,95005.38
2023-05-20T14:48:02.798Z,95005.09
2023-05-20T14:50:29.520Z,95000.53
2023-05-20T14:52:56.176Z,94995.56
2023-05-20T14:55:22.772Z,94993.84
2023-05-20T14:57:49.577Z,94993.56
2023-05-20T15:00:16.560Z,94999.78
2023-05-20T15:02:43.384Z,94995.97
2023-05-20T15:05:10.096Z,94988.03
2023-05-20T15:07:36.782Z,94991.28
2023-05-20T15:10:03.959Z,94996.91
2023-05-20T15:12:30.632Z,94993.09
2023-05-20T15:14:57.259Z,94987.19
2023-05-20T15:17:23.981Z,94992.47
2023-05-20T15:19:50.635Z,94992.38
2023-05-20T15:22:17.322Z,94996.81
2023-05-20T15:24:43.919Z,94997.22
2023-05-20T15:27:10.587Z,94999.00
2023-05-20T15:29:38.711Z,94995.94
2023-05-20T15:32:06.629Z,94994.81
2023-05-20T15:34:33.994Z,94990.63
2023-05-20T15:37:00.688Z,94994.13
2023-05-20T15:39:27.327Z,94991.81
2023-05-20T15:41:54.125Z,94988.75
2023-05-20T15:44:20.748Z,94992.81
2023-05-20T15:46:47.586Z,94984.66
2023-05-20T15:49:14.362Z,94986.22
2023-05-20T15:51:44.520Z,94988.38
2023-05-20T15:54:15.906Z,94988.38
2023-05-20T15:56:42.516Z,94993.94
2023-05-20T15:59:09.134Z,94992.81
2023-05-20T16:01:35.786Z,94998.56
2023-05-20T16:04:02.604Z,94992.09
2023-05-20T16:06:29.336Z,94987.22
2023-05-20T16:08:55.962Z,94997.28
2023-05-20T16:11:23.212Z,94988.72
2023-05-20T16:13:49.872Z,94992.31
2023-05-20T16:16:16.663Z,94981.50
2023-05-20T16:18:43.525Z,94981.91
2023-05-20T16:21:13.115Z,94985.41
2023-05-20T16:23:39.809Z,94981.91
2023-05-20T16:26:06.439Z,94986.72
2023-05-20T16:28:33.081Z,94982.44
2023-05-20T16:30:59.700Z,94979.69
2023-05-20T16:33:26.399Z,94985.41
2023-05-20T16:35:53.028Z,94981.06
2023-05-20T16:38:19.888Z,94990.06
2023-05-20T16:40:46.525Z,94979.66
2023-05-20T16:43:13.322Z,94990.53
2023-05-20T16:45:40.161Z,94995.38
2023-05-20T16:48:06.897Z,94998.03
2023-05-20T16:50:33.761Z,95008.34
2023-05-20T16:53:00.517Z,95009.78
2023-05-20T16:55:27.118Z,95009.31
2023-05-20T16:57:53.773Z,95008.72
2023-05-20T17:00:20.429Z,95016.94
2023-05-20T17:02:47.168Z,95012.34
2023-05-20T17:05:16.668Z,95023.25
2023-05-20T17:07:43.563Z,95023.03
2023-05-20T17:10:10.652Z,95025.50
2023-05-20T17:12:37.268Z,95022.91
2023-05-20T17:15:04.008Z,95027.34
2023-05-20T17:17:30.732Z,95022.28
2023-05-20T17:19:57.480Z,95019.22
2023-05-20T17:22:24.136Z,95030.03
2023-05-20T17:24:50.839Z,95026.88
2023-05-20T17:27:17.471Z,95031.34
2023-05-20T17:29:44.090Z,95030.63
2023-05-20T17:32:10.830Z,95031.03
2023-05-20T17:34:37.577Z,95034.72
2023-05-20T17:37:04.497Z,95036.38
2023-05-20T17:39:31.138Z,95041.59
2023-05-20T17:41:57.850Z,95038.84
2023-05-20T17:44:24.495Z,95037.72
2023-05-20T17:46:51.188Z,95048.84
2023-05-20T17:49:17.857Z,95044.94
2023-05-20T17:51:44.588Z,95058.03
2023-05-20T17:54:11.327Z,95061.25
2023-05-20T17:56:37.925Z,95056.94
2023-05-20T17:59:04.576Z,95051.47
2023-05-20T18:01:31.218Z,95057.03
2023-05-20T18:03:57.961Z,95055.13
2023-05-20T18:06:24.930Z,95052.78
2023-05-20T18:08:51.582Z,95065.88
2023-05-20T18:11:18.265Z,95064.72
2023-05-20T18:13:44.958Z,95070.25
2023-05-20T18:16:11.640Z,95066.38
2023-05-20T18:18:38.276Z,95065.59
2023-05-20T18:21:05.240Z,95068.41
2023-05-20T18:23:31.832Z,95070.00
2023-05-20T18:25:58.539Z,95072.38
2023-05-20T18:28:25.205Z,95075.16
2023-05-20T18:30:51.832Z,95072.81
2023-05-20T18:33:18.505Z,95071.66
2023-05-20T18:35:45.115Z,95062.63
2023-05-20T18:38:11.800Z,95065.38
2023-05-20T18:40:38.555Z,95073.69
2023-05-20T18:43:05.175Z,95062.25
2023-05-20T18:45:31.804Z,95065.03
2023-05-20T18:47:58.581Z,95072.94
2023-05-20T18:50:25.542Z,95068.59
2023-05-20T18:52:52.331Z,95072.91
2023-05-20T18:55:19.356Z,95070.16
2023-05-20T18:57:45.967Z,95061.47
2023-05-20T19:00:13.220Z,95065.41
2023-05-20T19:02:40.661Z,95063.84
2023-05-20T19:05:09.168Z,95067.00
2023-05-20T19:07:35.955Z,95068.56
2023-05-20T19:10:03.123Z,95067.38
2023-05-20T19:12:29.829Z,95066.19
2023-05-20T19:14:56.555Z,95066.56
2023-05-20T19:17:23.692Z,95070.88
2023-05-20T19:19:50.636Z,95074.78
2023-05-20T19:22:17.359Z,95075.56
2023-05-20T19:24:43.969Z,95073.56
2023-05-20T19:27:10.744Z,95087.31
2023-05-20T19:29:37.382Z,95088.91
2023-05-20T19:32:04.316Z,95092.81
2023-05-20T19:34:31.073Z,95090.03
2023-05-20T19:36:57.683Z,95092.78
2023-05-20T19:39:24.519Z,95097.47
2023-05-20T19:41:51.133Z,95099.00
2023-05-20T19:44:17.912Z,95099.00
2023-05-20T19:46:44.670Z,95099.00
2023-05-20T19:49:11.478Z,95098.97
2023-05-20T19:51:38.111Z,95102.09
2023-05-20T19:54:04.753Z,95101.28
2023-05-20T19:56:31.428Z,95108.34
2023-05-20T19:58:58.044Z,95102.03
2023-05-20T20:01:24.689Z,95096.13
2023-05-20T20:03:51.477Z,95098.84
2023-05-20T20:06:18.093Z,95098.81
2023-05-20T20:08:44.757Z,95105.09
2023-05-20T20:11:12.990Z,95104.25
2023-05-20T20:13:39.705Z,95101.09
2023-05-20T20:16:06.975Z,95101.88
2023-05-20T20:18:33.794Z,95110.50
2023-05-20T20:21:00.469Z,95093.94
2023-05-20T20:23:27.462Z,95108.50
2023-05-20T20:25:54.076Z,95106.13
2023-05-20T20:28:21.443Z,95110.03
2023-05-20T20:30:48.079Z,95108.03
2023-05-20T20:33:14.818Z,95110.41
2023-05-20T20:35:41.422Z,95107.59
2023-05-20T20:38:08.146Z,95109.94
2023-05-20T20:40:38.916Z,95107.97
2023-05-20T20:43:06.515Z,95119.34
2023-05-20T20:45:34.530Z,95114.19
2023-05-20T20:48:01.525Z,95127.06
2023-05-20T20:50:28.249Z,95116.13
2023-05-20T20:52:54.883Z,95117.31
2023-05-20T20:55:21.550Z,95114.50
2023-05-20T20:57:48.163Z,95110.94
2023-05-20T21:00:14.950Z,95123.50
2023-05-20T21:02:41.922Z,95120.34
2023-05-20T21:05:08.889Z,95117.97
2023-05-20T21:07:35.492Z,95116.34
2023-05-20T21:10:02.298Z,95117.09
2023-05-20T21:12:28.888Z,95120.22
2023-05-20T21:14:55.496Z,95120.22
2023-05-20T21:17:22.099Z,95116.25
2023-05-20T21:19:48.766Z,95123.31
2023-05-20T21:22:15.437Z,95114.59
2023-05-20T21:24:42.113Z,95115.41
2023-05-20T21:27:08.757Z,95105.16
2023-05-20T21:29:36.151Z,95112.19
2023-05-20T21:32:03.970Z,95114.53
2023-05-20T21:34:30.594Z,95116.06
2023-05-20T21:36:57.442Z,95111.31
2023-05-20T21:39:24.100Z,95112.91
2023-05-20T21:41:50.767Z,95106.56
2023-05-20T21:44:17.472Z,95103.81
2023-05-20T21:46:44.179Z,95104.16
2023-05-20T21:49:10.885Z,95111.19
2023-05-20T21:51:37.498Z,95114.69
2023-05-20T21:54:04.229Z,95112.69
2023-05-20T21:56:30.840Z,95109.16
2023-05-20T21:58:57.434Z,95115.41
2023-05-20T22:01:24.078Z,95115.41
2023-05-20T22:03:51.702Z,95113.84
2023-05-20T22:06:18.730Z,95107.84
2023-05-20T22:08:45.397Z,95111.78
2023-05-20T22:11:12.115Z,95110.59
2023-05-20T22:13:38.716Z,95103.50
2023-05-20T22:16:05.634Z,95104.25
2023-05-20T22:18:32.459Z,95102.25
2023-05-20T22:20:59.438Z,95092.44
2023-05-20T22:23:27.396Z,95097.50
2023-05-20T22:25:54.507Z,95098.25
2023-05-20T22:28:21.296Z,95093.94
2023-05-20T22:30:47.935Z,95083.31
2023-05-20T22:33:14.547Z,95089.97
2023-05-20T22:35:41.364Z,95093.50
2023-05-20T22:38:08.215Z,95091.94
2023-05-20T22:40:34.900Z,95096.25
2023-05-20T22:43:01.586Z,95093.09
2023-05-20T22:45:28.292Z,95081.69
2023-05-20T22:47:54.935Z,95091.09
2023-05-20T22:50:21.801Z,95080.84
2023-05-20T22:52:48.475Z,95073.78
2023-05-20T22:55:15.158Z,95076.09
2023-05-20T22:57:41.783Z,95081.59
2023-05-20T23:00:09.020Z,95077.66
2023-05-20T23:02:35.764Z,95079.19
2023-05-20T23:05:02.379Z,95077.59
2023-05-20T23:07:28.976Z,95074.81
2023-05-20T23:09:55.670Z,95071.25
2023-05-20T23:12:22.280Z,95066.53
2023-05-20T23:14:48.897Z,95072.75
2023-05-20T23:17:15.522Z,95066.41
2023-05-20T23:19:42.144Z,95061.66
2023-05-20T23:22:08.840Z,95066.75
2023-05-20T23:24:35.519Z,95066.69
2023-05-20T23:27:02.186Z,95063.91
2023-05-20T23:29:28.785Z,95071.72
2023-05-20T23:31:55.452Z,95064.22
2023-05-20T23:34:22.090Z,95065.78
2023-05-20T23:36:48.754Z,95061.03
2023-05-20T23:39:17.521Z,95068.41
2023-05-20T23:41:45.021Z,95066.78
2023-05-20T23:44:11.801Z,95056.16
2023-05-20T23:46:38.646Z,95058.88
2023-05-20T23:49:05.589Z,95048.63
2023-05-20T23:51:32.413Z,95054.84
2023-05-20T23:53:59.025Z,95058.34
2023-05-20T23:56:25.627Z,95053.97
2023-05-20T23:58:52.382Z,95056.66
